This is the latest recevied weather packets stored in our database for station/object CA3EVY-3. If no packets are shown the sender has not sent any weather packets the latest 10 day(s).
| Time | Temp. | Humidity | Pressure | Rain* | Wind** | Luminosity | Snow |
|---|---|---|---|---|---|---|---|
| 1788151503 | 54° F | 64% | 691.7 mmHg | - | - | - | - |
| 1788150603 | 55° F | 64% | 691.5 mmHg | - | - | - | - |
| 1788149703 | 55° F | 64% | 691.4 mmHg | - | - | - | - |
| 1788148804 | 56° F | 68% | 691.3 mmHg | - | - | - | - |
| 1788147903 | 59° F | 74% | 691.1 mmHg | - | - | - | - |
| 1788147003 | 56° F | 72% | 691.9 mmHg | - | - | - | - |
| 1788146107 | 59° F | 72% | 691.6 mmHg | - | - | - | - |
| 1788145203 | 58° F | 69% | 691.5 mmHg | - | - | - | - |
| 1788144304 | 58° F | 69% | 691.4 mmHg | - | - | - | - |
| 1788143403 | 56° F | 69% | 691.6 mmHg | - | - | - | - |
| 1788142504 | 55° F | 69% | 691.5 mmHg | - | - | - | - |
| 1788141604 | 56° F | 71% | 691.3 mmHg | - | - | - | - |
| 1788140703 | 58° F | 78% | 690.9 mmHg | - | - | - | - |
| 1788139804 | 55° F | 66% | 690.8 mmHg | - | - | - | - |
| 1788138903 | 54° F | 66% | 690.8 mmHg | - | - | - | - |
| 1788138004 | 54° F | 65% | 690.4 mmHg | - | - | - | - |
| 1788137103 | 56° F | 65% | 689.8 mmHg | - | - | - | - |
| 1788136203 | 55° F | 61% | 689.8 mmHg | - | - | - | - |
| 1788135303 | 56° F | 61% | 690.4 mmHg | - | - | - | - |
| 1788134403 | 57° F | 58% | 689.8 mmHg | - | - | - | - |
| 1788133503 | 57° F | 58% | 689.6 mmHg | - | - | - | - |
| 1788132603 | 57° F | 58% | 689.6 mmHg | - | - | - | - |
| 1788131704 | 57° F | 58% | 689.6 mmHg | - | - | - | - |
| 1788130804 | 58° F | 57% | 689.2 mmHg | - | - | - | - |
| 1788129903 | 58° F | 57% | 689 mmHg | - | - | - | - |
* Rain since midnight (hover to see other rain measurements)
** Current wind speed in m/s (hover to see current wind gust speed)